Terminal Aerodrome Forecast
Issued by NWS Cleveland, OH

Home | Current Version | Previous Version | Text Only | Print | Product List | Glossary On
Versions: 1 2 3 4 5 6 7 8 9 10 11 12 13
173
FTUS41 KCLE 271720
TAFYNG
TAF
KYNG 271720Z 2718/2818 VRB03KT P6SM SCT045 BKN200
     FM280100 02004KT P6SM BKN120
     FM280900 06005KT 5SM BR BKN035
     FM281400 07006KT P6SM VCSH BKN025
     FM281700 04007KT P6SM OVC035=

USA.gov is the U.S. government's official web portal to all federal, state and local government web resources and services.